createdAt,value
2023-05-15T00:00:56.815Z,95.17
2023-05-15T00:20:57.110Z,94.85
2023-05-15T00:30:57.284Z,94.96
2023-05-15T00:40:57.498Z,95.67
2023-05-15T00:50:57.719Z,95.10
2023-05-15T01:00:57.906Z,95.00
2023-05-15T01:10:58.032Z,95.00
2023-05-15T01:20:58.229Z,94.95
2023-05-15T01:30:58.414Z,95.41
2023-05-15T01:40:58.613Z,94.59
2023-05-15T01:50:58.765Z,94.49
2023-05-15T02:00:58.961Z,94.08
2023-05-15T02:10:59.174Z,94.18
2023-05-15T02:20:59.325Z,95.66
2023-05-15T02:30:59.495Z,94.95
2023-05-15T02:40:59.684Z,94.23
2023-05-15T02:50:59.954Z,94.33
2023-05-15T03:00:59.970Z,95.66
2023-05-15T03:11:00.151Z,96.28
2023-05-15T03:21:00.294Z,95.09
2023-05-15T03:31:00.509Z,93.92
2023-05-15T03:41:00.673Z,94.74
2023-05-15T03:51:00.819Z,96.01
2023-05-15T04:01:00.977Z,95.09
2023-05-15T04:11:01.142Z,94.84
2023-05-15T04:21:01.333Z,96.28
2023-05-15T04:31:01.497Z,96.99
2023-05-15T04:41:01.678Z,95.70
2023-05-15T04:51:01.821Z,94.54
2023-05-15T05:01:03.884Z,94.84
2023-05-15T05:11:02.194Z,95.15
2023-05-15T05:21:02.349Z,95.46
2023-05-15T05:31:02.548Z,94.84
2023-05-15T05:41:02.744Z,95.51
2023-05-15T05:51:02.952Z,95.62
2023-05-15T06:01:03.081Z,95.82
2023-05-15T06:11:03.254Z,95.67
2023-05-15T06:21:03.451Z,94.04
2023-05-15T06:31:03.719Z,94.10
2023-05-15T06:41:03.709Z,92.62
2023-05-15T06:51:03.857Z,92.78
2023-05-15T07:01:04.044Z,92.02
2023-05-15T07:11:04.210Z,92.37
2023-05-15T07:21:04.358Z,92.47
2023-05-15T07:31:04.537Z,93.15
2023-05-15T07:41:04.668Z,92.64
2023-05-15T07:51:04.827Z,95.20
2023-05-15T08:01:04.986Z,95.72
2023-05-15T08:11:05.245Z,95.56
2023-05-15T08:21:05.261Z,95.10
2023-05-15T08:31:05.470Z,94.71
2023-05-15T08:41:05.621Z,92.89
2023-05-15T08:51:05.793Z,91.38
2023-05-15T09:01:05.969Z,90.25
2023-05-15T09:11:06.146Z,93.37
2023-05-15T09:21:06.317Z,92.70
2023-05-15T09:31:06.512Z,93.16
2023-05-15T09:41:06.694Z,92.45
2023-05-15T09:51:06.982Z,91.64
2023-05-15T10:01:07.075Z,91.53
2023-05-15T10:11:07.014Z,89.91
2023-05-15T10:21:07.178Z,88.71
2023-05-15T10:31:07.370Z,84.09
2023-05-15T10:41:17.346Z,82.33
2023-05-15T10:51:10.637Z,72.38
2023-05-15T11:01:07.903Z,79.25
2023-05-15T11:11:08.030Z,75.49
2023-05-15T11:21:08.309Z,74.82
2023-05-15T11:31:08.536Z,74.78
2023-05-15T11:41:08.655Z,72.85
2023-05-15T11:51:08.847Z,73.56
2023-05-15T12:01:10.319Z,66.86
2023-05-15T12:11:09.137Z,61.08
2023-05-15T12:21:09.316Z,62.65
2023-05-15T12:31:09.493Z,58.12
2023-05-15T12:41:09.738Z,59.80
2023-05-15T12:51:09.941Z,65.34
2023-05-15T13:01:10.122Z,70.19
2023-05-15T13:11:10.309Z,65.12
2023-05-15T13:21:10.483Z,61.35
2023-05-15T13:31:10.812Z,57.29
2023-05-15T13:41:10.793Z,59.47
2023-05-15T13:51:11.011Z,58.04
2023-05-15T14:01:11.357Z,59.50
2023-05-15T14:11:11.319Z,62.87
2023-05-15T14:21:11.601Z,60.41
2023-05-15T14:31:11.746Z,66.93
2023-05-15T14:41:11.930Z,68.17
2023-05-15T14:51:12.113Z,67.97
2023-05-15T15:01:12.330Z,67.16
2023-05-15T15:11:12.537Z,67.86
2023-05-15T15:21:12.694Z,66.78
2023-05-15T15:31:12.899Z,70.76
2023-05-15T15:41:13.063Z,66.55
2023-05-15T15:51:13.280Z,69.38
2023-05-15T16:01:13.497Z,67.62
2023-05-15T16:11:13.699Z,67.49
2023-05-15T16:21:14.103Z,67.82
2023-05-15T16:31:14.522Z,67.18
2023-05-15T16:41:14.699Z,69.95
2023-05-15T16:51:14.976Z,68.80
2023-05-15T17:01:15.213Z,69.34
2023-05-15T17:11:15.449Z,69.24
2023-05-15T17:21:15.541Z,71.23
2023-05-15T17:31:15.733Z,73.19
2023-05-15T17:41:15.828Z,72.92
2023-05-15T17:51:15.948Z,75.35
2023-05-15T18:01:16.109Z,75.93
2023-05-15T18:11:22.315Z,76.37
2023-05-15T18:21:17.422Z,74.44
2023-05-15T18:31:16.601Z,78.13
2023-05-15T18:41:16.719Z,79.99
2023-05-15T18:51:16.820Z,80.26
2023-05-15T19:01:16.991Z,80.40
2023-05-15T19:11:17.994Z,81.35
2023-05-15T19:21:17.313Z,84.82
2023-05-15T19:31:30.803Z,84.99
2023-05-15T19:41:18.529Z,84.01
2023-05-15T19:51:17.603Z,85.61
2023-05-15T20:01:17.740Z,88.00
2023-05-15T20:11:17.817Z,88.81
2023-05-15T20:21:17.934Z,88.40
2023-05-15T20:31:18.219Z,88.31
2023-05-15T20:41:18.232Z,89.01
2023-05-15T20:51:18.548Z,88.69
2023-05-15T21:01:18.321Z,89.75
2023-05-15T21:11:18.492Z,89.71
2023-05-15T21:21:18.836Z,89.04
2023-05-15T21:31:18.874Z,90.71
2023-05-15T21:41:19.067Z,89.69
2023-05-15T21:51:19.234Z,89.69
2023-05-15T22:01:19.431Z,90.10
2023-05-15T22:11:19.588Z,89.65
2023-05-15T22:21:19.780Z,89.55
2023-05-15T22:31:19.997Z,88.98
2023-05-15T22:41:20.165Z,88.57
2023-05-15T22:51:20.365Z,90.61
2023-05-15T23:01:20.560Z,92.02
2023-05-15T23:11:20.730Z,92.39
2023-05-15T23:21:20.912Z,92.33
2023-05-15T23:31:21.139Z,92.69
2023-05-15T23:41:21.343Z,92.80
2023-05-15T23:51:21.511Z,93.41
